Flight Track Log - Related Links

Times and Time Zones

All times are in EDT time to prevent confusion due to time zone crossing. See the ELJ733 flight status page for this flight to view local times or setup timezone preferences in your user account.

Time Position Orientation Groundspeed Altitude Reporting Facility
EDT Latitude Longitude Course Direction KTS MPH feet Rate Location/Type
Wed 06:25:27 PM 37.9439 -84.6289 139° Southeast 258 297 8,600  Level Indianapolis Center
Wed 06:26:29 PM 37.8761 -84.5553 139° Southeast 335 386 10,300 2,952 Climbing Indianapolis Center
Wed 06:27:31 PM 37.8775 -84.4161 89° East 390 449 14,700 3,823 Climbing Indianapolis Center
Wed 06:28:33 PM 37.8769 -84.2572 90° East 438 504 18,200 3,339 Climbing Indianapolis Center
Wed 06:29:35 PM 37.8736 -84.0875 91° East 472 543 21,600 1,839 Climbing Indianapolis Center
Wed 06:30:37 PM 37.8694 -83.8669 91° East 526 605 22,000 194 Climbing Indianapolis Center
Wed 06:31:39 PM 37.8656 -83.6692 91° East 553 636 22,000 145 Level Indianapolis Center
Wed 06:32:41 PM 37.8625 -83.4756 91° East 550 633 22,300 919 Climbing Indianapolis Center
Wed 06:33:43 PM 37.8567 -83.2867 92° East 538 619 23,900 1,984 Climbing Indianapolis Center
Wed 06:34:45 PM 37.8514 -83.0883 92° East 556 640 26,400 2,448 Climbing Indianapolis Center
Wed 06:35:48 PM 37.8467 -82.8867 92° East 567 652 29,000 2,208 Climbing Indianapolis Center
Wed 06:36:50 PM 37.8394 -82.6514 92° East 568 654 31,000 968 Climbing Indianapolis Center
Wed 06:37:52 PM 37.8319 -82.4428 92° East 585 673 31,000 387 Level Indianapolis Center
Wed 06:38:00 PM 37.8325 -82.4758 92° East  Level FlightAware Approximate
Wed 06:38:54 PM 37.8244 -82.2372 93° East 584 672 31,800  Level Indianapolis Center
Wed 06:39:56 PM 37.8192 -82.0400 92° East 565 650 32,000 97 Climbing Indianapolis Center
Wed 06:40:58 PM 37.8114 -81.8283 93° East 593 682 32,000  Level Indianapolis Center
Wed 06:42:00 PM 37.8206 -81.6175 87° East 599 689 32,000  Level Indianapolis Center
Wed 06:43:02 PM 37.8750 -81.4125 71° East 583 671 32,000 774 Level Indianapolis Center
Wed 06:44:04 PM 37.9278 -81.2219 71° East 577 664 33,600 1,984 Climbing Indianapolis Center
Wed 06:45:06 PM 37.9356 -81.0267 87° East 558 642 36,100 1,645 Climbing Indianapolis Center
Wed 06:46:08 PM 37.9300 -80.7972 92° East 548 631 37,000 435 Climbing Indianapolis Center
Wed 06:47:10 PM 37.9278 -80.5975 91° East 563 648 37,000  Level Indianapolis Center
Wed 06:48:12 PM 37.9258 -80.3867 91° East 558 642 37,000  Level Indianapolis Center
Wed 06:49:14 PM 37.9225 -80.2006 91° East 544 626 37,000  Level Indianapolis Center
Wed 06:50:17 PM 37.9200 -80.0133 91° East 544 626 37,000  Level Indianapolis Center
Wed 06:51:19 PM 37.9164 -79.8247 91° East 547 629 37,000  Level Indianapolis Center
Wed 06:52:21 PM 37.9125 -79.5983 91° East 545 627 37,000  Level Indianapolis Center
Wed 06:53:30 PM 37.9106 -79.4031 91° East 553 636 37,000  Level Washington Center
Wed 06:54:28 PM 37.9058 -79.2106 92° East 553 636 37,000  Level Washington Center
Wed 06:55:28 PM 37.9186 -78.9953 86° East 553 636 37,000  Level Washington Center
Wed 06:56:30 PM 37.9406 -78.8014 82° East 553 636 37,000  Level Washington Center
Wed 06:57:29 PM 37.9644 -78.6075 81° East 553 636 37,000  Level Washington Center
Wed 06:58:30 PM 37.9878 -78.4161 81° East 553 636 37,000  Level Washington Center
Wed 06:59:30 PM 38.0089 -78.2244 82° East 558 642 37,000  Level Washington Center
Wed 07:00:28 PM 38.0581 -78.0628 69° East 553 636 37,000  Level Washington Center
Wed 07:01:29 PM 38.1408 -77.8967 58° Northeast 539 620 37,000  Level Washington Center
Wed 07:02:30 PM 38.2231 -77.7325 57° Northeast 544 626 37,000  Level Washington Center
Wed 07:03:28 PM 38.3072 -77.5631 58° Northeast 556 640 37,000 -101 Level Washington Center
Wed 07:04:29 PM 38.4056 -77.4172 49° Northeast 549 632 36,800 -650 Descending Washington Center
Wed 07:05:28 PM 38.5286 -77.2664 44° Northeast 544 626 35,700 -1,050 Descending Washington Center
Wed 07:06:29 PM 38.6431 -77.1228 44° Northeast 555 639 34,700 -885 Descending Washington Center
Wed 07:07:30 PM 38.7319 -77.0047 46° Northeast 561 646 33,900 -1,587 Descending Washington Center
Wed 07:08:30 PM 38.8675 -76.8286 45° Northeast 566 651 31,500 -2,492 Descending Washington Center
Wed 07:09:28 PM 38.9814 -76.6811 45° Northeast 572 658 29,000 -2,542 Descending Washington Center
Wed 07:10:28 PM 39.0931 -76.5331 46° Northeast 572 658 26,500 -2,182 Descending Washington Center
Wed 07:11:29 PM 39.1794 -76.4217 45° Northeast 572 658 24,600 -1,240 Descending Washington Center
Wed 07:12:29 PM 39.2992 -76.2619 46° Northeast 534 615 24,000 -450 Descending Washington Center
Wed 07:13:29 PM 39.3997 -76.1314 45° Northeast 510 587 23,700 -1,908 Descending Washington Center
Wed 07:15:22 PM 39.5833 -75.8833 46° Northeast 459 528 18,500 -2,671 Descending Philadelphia TRACON
Wed 07:16:22 PM 39.6667 -75.7667 47° Northeast 427 491 16,000 -2,350 Descending Philadelphia TRACON
Wed 07:17:22 PM 39.7333 -75.6667 49° Northeast 388 447 13,800 -1,488 Descending Philadelphia TRACON
Wed 07:18:23 PM 39.8167 -75.5833 38° Northeast 368 423 13,000 -381 Descending Philadelphia TRACON
Wed 07:19:28 PM 39.9167 -75.5000 33° Northeast 370 426 13,000  Level Philadelphia TRACON
Wed 07:20:28 PM 40.0000 -75.4167 37° Northeast 374 430 13,000  Level Philadelphia TRACON
Wed 07:21:29 PM 40.0833 -75.3333 37° Northeast 377 434 13,000 -50 Level Philadelphia TRACON
Wed 07:22:29 PM 40.1667 -75.2667 31° Northeast 377 434 12,900 -1,302 Descending Philadelphia TRACON
Wed 07:24:38 PM 40.3333 -75.1000 37° Northeast 296 341 8,900 -1,770 Descending New York TRACON
Wed 07:25:32 PM 40.3667 -75.0333 57° Northeast 276 318 7,500 -1,350 Descending New York TRACON
Wed 07:26:38 PM 40.4333 -74.9500 44° Northeast 277 319 6,200 -1,190 Descending New York TRACON
Wed 07:27:38 PM 40.4833 -74.8667 52° Northeast 279 321 5,000 -1,150 Descending New York TRACON
Wed 07:28:38 PM 40.5000 -74.7667 78° East 272 313 3,900 -1,000 Descending New York TRACON
Wed 07:29:38 PM 40.5333 -74.6833 62° Northeast 260 299 3,000 -450 Descending New York TRACON
Wed 07:30:38 PM 40.5500 -74.6000 75° East 256 295 3,000  Level New York TRACON
Wed 07:31:38 PM 40.5833 -74.5167 62° Northeast 250 288 3,000  Level New York TRACON
Wed 07:32:32 PM 40.6167 -74.4500 57° Northeast 248 285 3,000  Level New York TRACON
Wed 07:33:38 PM 40.6500 -74.3667 62° Northeast 221 254 3,000 -350 Level New York TRACON
Wed 07:34:32 PM 40.6833 -74.3167 49° Northeast 200 230 2,300 -526 Descending New York TRACON
Wed 07:35:32 PM 40.7167 -74.2500 57° Northeast 194 223 2,000 -381 Descending New York TRACON
Wed 07:36:38 PM 40.7500 -74.2000 49° Northeast 189 217 1,500 -238 Descending New York TRACON
Wed 07:37:38 PM 40.7833 -74.1500 49° Northeast 175 201 1,500 -263 Level New York TRACON
Wed 07:38:32 PM 40.8167 -74.1167 37° Northeast 147 169 1,000 -556 Descending New York TRACON
Wed 07:40:00 PM 40.8500 -74.0500 57° Northeast  Level FlightAware Approximate
Wed 07:47:00 PM 40.8501 -74.0608 57° Northeast  Level Estimated

Login

Don't have an account? Register now (free) for customized features, flight alerts, and more!